YM Initiative — A8HX4 — position and weather

sailwx.info

Track history (hours):
 
Tides and Currents Weather Stations Pressure Air Temp Water Temp Dewpoint Dewpoint Depression Visibility Wind Speed Wind Dir Waves Ship Positions

YM Initiative

Last reported at 2015-Mar-28 10:15 UTC. Time now 2015-Mar-30 04:32 UTC.
Position N 01°15' E 104°04'.

Length 173 m; draft 7.7 m.

Type: Cargo ship. MMSI: 635961368.

Date/timePositionNaut miles runAvg speedWind from/ knotsBaromVisibWave heightAir tempDewpointWater temp
2015-Mar-28 10:15N 01°15' E 104°04'1014.1
2015-Mar-28 09:33N 01°13' E 103°55'10 7.4
2015-Mar-28 08:13N 01°17' E 103°46'0 0.1
2015-Mar-28 07:18N 01°17' E 103°46'0 0.0
2015-Mar-28 06:06N 01°17' E 103°46'0 0.0
2015-Mar-28 05:24N 01°17' E 103°46'0 0.0
2015-Mar-28 04:09N 01°17' E 103°46'0 0.0
2015-Mar-28 03:33N 01°17' E 103°46'0 0.0
2015-Mar-27 23:18N 01°17' E 103°46'7 3.8
2015-Mar-27 21:32N 01°13' E 103°51'9 9.0
2015-Mar-27 20:33N 01°16' E 103°60'7 7.3
2015-Mar-27 19:33N 01°17' E 104°07'8 7.8
2015-Mar-27 18:33N 01°18' E 104°15'  
2015-Mar-23 05:21N 01°15' E 104°05'1315.5
2015-Mar-23 04:32N 01°12' E 103°52'7514.5
2015-Mar-22 23:23N 01°39' E 102°43'1415.8
2015-Mar-22 22:31N 01°46' E 102°31'1515.5
2015-Mar-22 21:33N 01°53' E 102°18'1615.2
2015-Mar-22 20:29N 02°03' E 102°05'1415.1
2015-Mar-22 19:33N 02°12' E 101°54'17 0.5
2015-Mar-21 12:19N 02°04' E 102°08'6 8.2
2015-Mar-21 11:32N 02°00' E 102°13'9 9.3
2015-Mar-21 10:32N 01°55' E 102°22'1110.8
2015-Mar-21 09:33N 01°51' E 102°31'80 9.9
2015-Mar-21 01:28N 01°15' E 103°43'4 4.1
2015-Mar-21 00:29N 01°17' E 103°47'0 0.0
2015-Mar-20 15:29N 01°17' E 103°47'0 0.0
2015-Mar-20 14:32N 01°17' E 103°47'0 0.0
2015-Mar-20 13:23N 01°17' E 103°47'0 0.0
2015-Mar-20 12:29N 01°16' E 103°47'0 0.4
2015-Mar-20 11:33N 01°16' E 103°46'2 1.9
2015-Mar-20 10:33N 01°14' E 103°47'8 8.3
2015-Mar-20 09:33N 01°14' E 103°55'7 7.3
2015-Mar-20 08:33N 01°16' E 104°02'9 9.0
2015-Mar-20 07:31N 01°17' E 104°12'  
Track history (hours):
 
Tides and Currents Weather Stations Pressure Air Temp Water Temp Dewpoint Dewpoint Depression Visibility Wind Speed Wind Dir Waves Ship Positions

YM Initiative

Last reported at 2015-Mar-28 10:15 UTC. Time now 2015-Mar-30 04:32 UTC.
Position N 01°15' E 104°04'.

Length 173 m; draft 7.7 m.

Type: Cargo ship. MMSI: 635961368.

Date/timePositionNaut miles runAvg speedWind from/ knotsBaromVisibWave heightAir tempDewpointWater temp
2015-Mar-28 10:15N 01°15' E 104°04'1014.1
2015-Mar-28 09:33N 01°13' E 103°55'10 7.4
2015-Mar-28 08:13N 01°17' E 103°46'0 0.1
2015-Mar-28 07:18N 01°17' E 103°46'0 0.0
2015-Mar-28 06:06N 01°17' E 103°46'0 0.0
2015-Mar-28 05:24N 01°17' E 103°46'0 0.0
2015-Mar-28 04:09N 01°17' E 103°46'0 0.0
2015-Mar-28 03:33N 01°17' E 103°46'0 0.0
2015-Mar-27 23:18N 01°17' E 103°46'7 3.8
2015-Mar-27 21:32N 01°13' E 103°51'9 9.0
2015-Mar-27 20:33N 01°16' E 103°60'7 7.3
2015-Mar-27 19:33N 01°17' E 104°07'8 7.8
2015-Mar-27 18:33N 01°18' E 104°15'  
2015-Mar-23 05:21N 01°15' E 104°05'1315.5
2015-Mar-23 04:32N 01°12' E 103°52'7514.5
2015-Mar-22 23:23N 01°39' E 102°43'1415.8
2015-Mar-22 22:31N 01°46' E 102°31'1515.5
2015-Mar-22 21:33N 01°53' E 102°18'1615.2
2015-Mar-22 20:29N 02°03' E 102°05'1415.1
2015-Mar-22 19:33N 02°12' E 101°54'17 0.5
2015-Mar-21 12:19N 02°04' E 102°08'6 8.2
2015-Mar-21 11:32N 02°00' E 102°13'9 9.3
2015-Mar-21 10:32N 01°55' E 102°22'1110.8
2015-Mar-21 09:33N 01°51' E 102°31'80 9.9
2015-Mar-21 01:28N 01°15' E 103°43'4 4.1
2015-Mar-21 00:29N 01°17' E 103°47'0 0.0
2015-Mar-20 15:29N 01°17' E 103°47'0 0.0
2015-Mar-20 14:32N 01°17' E 103°47'0 0.0
2015-Mar-20 13:23N 01°17' E 103°47'0 0.0
2015-Mar-20 12:29N 01°16' E 103°47'0 0.4
2015-Mar-20 11:33N 01°16' E 103°46'2 1.9
2015-Mar-20 10:33N 01°14' E 103°47'8 8.3
2015-Mar-20 09:33N 01°14' E 103°55'7 7.3
2015-Mar-20 08:33N 01°16' E 104°02'9 9.0
2015-Mar-20 07:31N 01°17' E 104°12'  

Dump ship's entire track history